createdAt,value
2022-08-26T00:01:54.330Z,102446.91
2022-08-26T00:04:25.322Z,102440.81
2022-08-26T00:06:54.239Z,102449.69
2022-08-26T00:09:21.472Z,102452.44
2022-08-26T00:11:48.870Z,102453.47
2022-08-26T00:14:16.960Z,102425.56
2022-08-26T00:16:48.070Z,102447.41
2022-08-26T00:19:20.779Z,102452.94
2022-08-26T00:21:49.651Z,102425.09
2022-08-26T00:24:19.373Z,102449.53
2022-08-26T00:26:47.138Z,102448.91
2022-08-26T00:29:14.250Z,102453.53
2022-08-26T00:31:42.620Z,102447.44
2022-08-26T00:34:12.509Z,102455.59
2022-08-26T00:36:41.066Z,102457.41
2022-08-26T00:39:09.385Z,102426.00
2022-08-26T00:41:39.910Z,102445.91
2022-08-26T00:44:08.642Z,102452.25
2022-08-26T00:46:46.418Z,102451.47
2022-08-26T00:49:21.841Z,102449.72
2022-08-26T00:51:55.845Z,102453.53
2022-08-26T00:54:27.228Z,102409.16
2022-08-26T00:57:00.508Z,102459.09
2022-08-26T00:59:33.012Z,102457.41
2022-08-26T01:02:02.846Z,102459.31
2022-08-26T01:04:33.483Z,102457.66
2022-08-26T01:07:00.889Z,102433.53
2022-08-26T01:09:28.466Z,102465.03
2022-08-26T01:11:59.605Z,102466.13
2022-08-26T01:14:32.784Z,102469.84
2022-08-26T01:17:02.361Z,102470.84
2022-08-26T01:19:41.396Z,102470.16
2022-08-26T01:22:13.687Z,102465.72
2022-08-26T01:24:41.718Z,102441.53
2022-08-26T01:27:12.480Z,102463.25
2022-08-26T01:29:42.868Z,102465.19
2022-08-26T01:32:14.701Z,102463.50
2022-08-26T01:34:41.770Z,102466.25
2022-08-26T01:37:23.964Z,102467.38
2022-08-26T01:39:53.583Z,102473.72
2022-08-26T01:42:23.872Z,102470.22
2022-08-26T01:45:10.431Z,102469.50
2022-08-26T01:47:38.633Z,102445.25
2022-08-26T01:50:15.766Z,102468.84
2022-08-26T01:52:56.072Z,102462.91
2022-08-26T01:55:27.686Z,102475.31
2022-08-26T01:58:05.522Z,102478.22
2022-08-26T02:00:34.478Z,102457.34
2022-08-26T02:03:18.125Z,102475.75
2022-08-26T02:05:46.826Z,102475.84
2022-08-26T02:08:22.997Z,102471.66
2022-08-26T02:10:54.785Z,102471.66
2022-08-26T02:13:23.165Z,102467.34
2022-08-26T02:15:53.454Z,102461.56
2022-08-26T02:18:20.614Z,102474.84
2022-08-26T02:20:51.742Z,102444.47
2022-08-26T02:23:19.054Z,102476.03
2022-08-26T02:25:54.464Z,102471.91
2022-08-26T02:28:22.104Z,102469.06
2022-08-26T02:30:55.553Z,102472.75
2022-08-26T02:33:23.051Z,102462.31
2022-08-26T02:35:50.077Z,102461.38
2022-08-26T02:38:17.725Z,102459.69
2022-08-26T02:40:44.846Z,102459.00
2022-08-26T02:43:12.609Z,102464.50
2022-08-26T02:45:41.147Z,102462.81
2022-08-26T02:48:12.281Z,102461.16
2022-08-26T02:50:40.089Z,102450.94
2022-08-26T02:53:07.529Z,102464.22
2022-08-26T02:55:35.203Z,102454.47
2022-08-26T02:58:02.701Z,102460.88
2022-08-26T03:00:31.380Z,102447.00
2022-08-26T03:02:59.660Z,102452.16
2022-08-26T03:05:27.033Z,102447.75
2022-08-26T03:07:54.003Z,102449.69
2022-08-26T03:10:21.870Z,102445.28
2022-08-26T03:12:48.930Z,102444.47
2022-08-26T03:15:18.552Z,102422.69
2022-08-26T03:17:50.278Z,102436.72
2022-08-26T03:20:18.376Z,102429.91
2022-08-26T03:22:45.452Z,102437.81
2022-08-26T03:25:15.677Z,102431.63
2022-08-26T03:27:43.138Z,102435.34
2022-08-26T03:30:30.009Z,102429.16
2022-08-26T03:32:57.267Z,102423.88
2022-08-26T03:35:25.791Z,102431.09
2022-08-26T03:37:53.575Z,102430.34
2022-08-26T03:40:21.211Z,102431.31
2022-08-26T03:42:50.297Z,102422.50
2022-08-26T03:45:18.598Z,102419.84
2022-08-26T03:47:46.712Z,102429.78
2022-08-26T03:50:22.640Z,102415.84
2022-08-26T03:52:51.669Z,102426.28
2022-08-26T03:55:21.278Z,102410.91
2022-08-26T03:57:51.984Z,102433.69
2022-08-26T04:00:19.785Z,102435.41
2022-08-26T04:02:48.885Z,102432.81
2022-08-26T04:05:18.340Z,102433.75
2022-08-26T04:07:46.591Z,102436.47
2022-08-26T04:10:20.286Z,102433.03
2022-08-26T04:12:47.902Z,102437.50
2022-08-26T04:15:16.752Z,102430.34
2022-08-26T04:17:45.152Z,102438.38
2022-08-26T04:20:14.114Z,102433.94
2022-08-26T04:22:43.449Z,102436.63
2022-08-26T04:25:10.746Z,102431.25
2022-08-26T04:27:38.810Z,102435.69
2022-08-26T04:30:09.078Z,102421.69
2022-08-26T04:32:36.657Z,102417.06
2022-08-26T04:35:05.281Z,102422.16
2022-08-26T04:37:33.637Z,102431.94
2022-08-26T04:40:00.767Z,102436.38
2022-08-26T04:42:29.417Z,102426.34
2022-08-26T04:44:56.333Z,102423.53
2022-08-26T04:47:23.231Z,102417.13
2022-08-26T04:49:51.877Z,102417.69
2022-08-26T04:52:19.176Z,102418.38
2022-08-26T04:54:46.220Z,102416.41
2022-08-26T04:57:13.418Z,102421.50
2022-08-26T04:59:40.588Z,102408.75
2022-08-26T05:02:07.942Z,102416.41
2022-08-26T05:04:36.331Z,102408.06
2022-08-26T05:07:04.471Z,102412.19
2022-08-26T05:09:31.512Z,102407.31
2022-08-26T05:11:58.579Z,102406.06
2022-08-26T05:14:25.529Z,102404.84
2022-08-26T05:16:52.666Z,102401.03
2022-08-26T05:19:20.015Z,102403.28
2022-08-26T05:21:48.778Z,102412.72
2022-08-26T05:24:16.979Z,102401.56
2022-08-26T05:26:45.415Z,102389.28
2022-08-26T05:29:12.996Z,102407.16
2022-08-26T05:31:40.109Z,102404.91
2022-08-26T05:34:08.445Z,102413.47
2022-08-26T05:36:36.095Z,102412.09
2022-08-26T05:39:05.938Z,102404.50
2022-08-26T05:41:36.170Z,102402.38
2022-08-26T05:44:07.285Z,102356.69
2022-08-26T05:46:35.416Z,102405.97
2022-08-26T05:49:03.865Z,102399.25
2022-08-26T05:51:31.139Z,102403.16
2022-08-26T05:53:58.973Z,102382.69
2022-08-26T05:56:27.809Z,102397.81
2022-08-26T05:58:56.503Z,102400.00
2022-08-26T06:01:28.041Z,102394.09
2022-08-26T06:04:01.503Z,102390.19
2022-08-26T06:06:32.671Z,102394.94
2022-08-26T06:09:01.562Z,102393.53
2022-08-26T06:11:32.423Z,102383.56
2022-08-26T06:14:03.909Z,102374.16
2022-08-26T06:16:35.042Z,102388.50
2022-08-26T06:19:03.478Z,102382.66
2022-08-26T06:21:40.539Z,102376.91
2022-08-26T06:24:29.760Z,102380.88
2022-08-26T06:27:02.658Z,102376.88
2022-08-26T06:29:33.167Z,102371.41
2022-08-26T06:32:02.870Z,102383.06
2022-08-26T06:34:30.292Z,102368.41
2022-08-26T06:37:01.872Z,102349.69
2022-08-26T06:39:50.097Z,102371.00
2022-08-26T06:42:38.256Z,102376.81
2022-08-26T06:45:26.915Z,102365.66
2022-08-26T06:48:13.953Z,102372.41
2022-08-26T06:51:02.317Z,102362.19
2022-08-26T06:53:49.390Z,102373.56
2022-08-26T06:56:39.725Z,102354.28
2022-08-26T06:59:08.475Z,102356.59
2022-08-26T07:01:43.030Z,102360.75
2022-08-26T07:04:11.873Z,102357.00
2022-08-26T07:07:01.211Z,102366.31
2022-08-26T07:09:52.500Z,102359.69
2022-08-26T07:12:28.012Z,102364.69
2022-08-26T07:15:15.629Z,102365.19
2022-08-26T07:18:02.849Z,102362.19
2022-08-26T07:20:49.901Z,102360.91
2022-08-26T07:23:36.727Z,102358.91
2022-08-26T07:26:30.352Z,102361.19
2022-08-26T07:29:18.774Z,102361.78
2022-08-26T07:32:06.490Z,102357.88
2022-08-26T07:34:54.024Z,102354.00
2022-08-26T07:37:41.056Z,102352.75
2022-08-26T07:40:29.030Z,102346.16
2022-08-26T07:43:16.285Z,102348.56
2022-08-26T07:46:04.129Z,102353.66
2022-08-26T07:48:52.094Z,102351.41
2022-08-26T07:51:41.867Z,102351.09
2022-08-26T07:54:17.158Z,102353.41
2022-08-26T07:57:09.272Z,102339.97
2022-08-26T07:59:57.223Z,102348.13
2022-08-26T08:02:26.424Z,102339.59
2022-08-26T08:04:54.675Z,102341.03
2022-08-26T08:07:25.722Z,102337.91
2022-08-26T08:10:09.866Z,102337.69
2022-08-26T08:12:38.972Z,102346.38
2022-08-26T08:15:26.628Z,102333.41
2022-08-26T08:18:15.743Z,102334.69
2022-08-26T08:21:10.784Z,102337.06
2022-08-26T08:23:46.202Z,102334.03
2022-08-26T08:26:15.082Z,102335.69
2022-08-26T08:29:03.837Z,102329.19
2022-08-26T08:31:56.713Z,102292.59
2022-08-26T08:34:28.159Z,102331.34
2022-08-26T08:36:56.193Z,102331.00
2022-08-26T08:39:24.518Z,102326.16
2022-08-26T08:41:51.552Z,102325.06
2022-08-26T08:44:22.814Z,102329.28
2022-08-26T08:46:59.897Z,102320.06
2022-08-26T08:49:47.518Z,102317.91
2022-08-26T08:53:01.252Z,102315.72
2022-08-26T08:55:36.632Z,102315.38
2022-08-26T08:58:10.407Z,102317.66
2022-08-26T09:00:48.617Z,102311.91
2022-08-26T09:03:38.311Z,102312.34
2022-08-26T09:06:27.691Z,102312.00
2022-08-26T09:09:16.392Z,102307.13
2022-08-26T09:12:03.609Z,102308.50
2022-08-26T09:14:52.493Z,102285.22
2022-08-26T09:17:39.349Z,102304.03
2022-08-26T09:20:56.771Z,102295.31
2022-08-26T09:23:43.845Z,102294.75
2022-08-26T09:26:16.323Z,102288.84
2022-08-26T09:29:07.816Z,102282.84
2022-08-26T09:31:57.909Z,102275.75
2022-08-26T09:34:47.637Z,102287.19
2022-08-26T09:37:57.092Z,102280.94
2022-08-26T09:40:56.345Z,102269.03
2022-08-26T09:43:47.374Z,102271.06
2022-08-26T09:46:45.744Z,102265.72
2022-08-26T09:49:52.425Z,102249.53
2022-08-26T09:52:44.241Z,102249.84
2022-08-26T09:55:35.465Z,102248.59
2022-08-26T09:58:22.640Z,102252.78
2022-08-26T10:01:18.336Z,102245.44
2022-08-26T10:04:06.714Z,102246.00
2022-08-26T10:07:00.213Z,102238.63
2022-08-26T10:09:49.731Z,102228.47
2022-08-26T10:12:42.549Z,102239.03
2022-08-26T10:15:31.304Z,102240.84
2022-08-26T10:18:31.934Z,102241.75
2022-08-26T10:21:47.776Z,102244.81
2022-08-26T10:25:04.432Z,102240.13
2022-08-26T10:29:09.269Z,102241.50
2022-08-26T10:32:31.427Z,102239.81
2022-08-26T10:35:39.365Z,102231.84
2022-08-26T10:38:58.733Z,102222.94
2022-08-26T10:42:10.929Z,102238.94
2022-08-26T10:45:27.752Z,102233.22
2022-08-26T10:49:09.417Z,102226.59
2022-08-26T10:52:42.291Z,102227.94
2022-08-26T10:55:34.706Z,102232.13
2022-08-26T10:58:14.589Z,102229.38
2022-08-26T11:01:30.353Z,102222.81
2022-08-26T11:04:05.030Z,102226.28
2022-08-26T11:06:32.065Z,102227.72
2022-08-26T11:09:21.909Z,102216.53
2022-08-26T11:13:01.899Z,102212.38
2022-08-26T11:16:15.029Z,102214.25
2022-08-26T11:19:22.075Z,102209.94
2022-08-26T11:22:56.174Z,102207.06
2022-08-26T11:26:35.907Z,102203.63
2022-08-26T11:30:21.349Z,102197.88
2022-08-26T11:33:51.187Z,102204.31
2022-08-26T11:37:06.464Z,102193.09
2022-08-26T11:40:17.615Z,102194.84
2022-08-26T11:43:34.898Z,102188.66
2022-08-26T11:46:51.486Z,102186.53
2022-08-26T11:49:59.530Z,102186.38
2022-08-26T11:53:15.423Z,102179.03
2022-08-26T11:56:31.643Z,102182.03
2022-08-26T11:59:57.313Z,102178.34
2022-08-26T12:03:04.524Z,102180.75
2022-08-26T12:05:49.821Z,102169.41
2022-08-26T12:08:21.740Z,102167.66
2022-08-26T12:10:49.237Z,102174.72
2022-08-26T12:13:26.312Z,102172.13
2022-08-26T12:15:57.333Z,102171.53
2022-08-26T12:18:30.100Z,102166.47
2022-08-26T12:21:01.985Z,102159.16
2022-08-26T12:23:37.968Z,102164.16
2022-08-26T12:26:12.145Z,102158.41
2022-08-26T12:28:45.997Z,102148.78
2022-08-26T12:31:24.604Z,102157.22
2022-08-26T12:33:52.884Z,102146.59
2022-08-26T12:36:31.623Z,102152.53
2022-08-26T12:39:09.050Z,102150.94
2022-08-26T12:41:49.650Z,102154.66
2022-08-26T12:44:57.488Z,102138.25
2022-08-26T12:48:05.995Z,102145.75
2022-08-26T12:51:13.464Z,102106.34
2022-08-26T12:54:22.177Z,102132.59
2022-08-26T12:56:49.969Z,102142.63
2022-08-26T12:59:44.561Z,102145.81
2022-08-26T13:02:55.926Z,102140.13
2022-08-26T13:05:42.760Z,102136.97
2022-08-26T13:08:45.720Z,102132.09
2022-08-26T13:11:34.092Z,102125.78
2022-08-26T13:14:06.892Z,102119.19
2022-08-26T13:16:35.997Z,102126.38
2022-08-26T13:19:12.047Z,102131.25
2022-08-26T13:22:05.915Z,102130.13
2022-08-26T13:25:16.314Z,102121.94
2022-08-26T13:28:26.651Z,102119.34
2022-08-26T13:31:35.511Z,102119.19
2022-08-26T13:34:46.188Z,102114.44
2022-08-26T13:37:55.091Z,102107.22
2022-08-26T13:41:03.035Z,102113.06
2022-08-26T13:44:09.977Z,102110.16
2022-08-26T13:46:56.780Z,102111.41
2022-08-26T13:49:43.935Z,102120.69
2022-08-26T13:52:50.688Z,102120.88
2022-08-26T13:55:57.724Z,102114.66
2022-08-26T13:59:04.825Z,102115.31
2022-08-26T14:02:12.103Z,102111.44
2022-08-26T14:05:18.819Z,102117.41
2022-08-26T14:08:25.805Z,102120.34
2022-08-26T14:11:37.016Z,102101.75
2022-08-26T14:14:59.864Z,102104.75
2022-08-26T14:18:08.754Z,102104.78
2022-08-26T14:21:15.793Z,102099.56
2022-08-26T14:24:24.013Z,102101.91
2022-08-26T14:27:32.690Z,102093.69
2022-08-26T14:30:24.615Z,102076.47
2022-08-26T14:33:15.907Z,102087.00
2022-08-26T14:36:23.129Z,102085.44
2022-08-26T14:39:32.253Z,102077.41
2022-08-26T14:42:46.692Z,102055.00
2022-08-26T14:46:04.577Z,102071.41
2022-08-26T14:49:11.374Z,102067.19
2022-08-26T14:52:18.464Z,102058.22
2022-08-26T14:55:25.626Z,102063.53
2022-08-26T14:58:34.858Z,102057.16
2022-08-26T15:01:41.959Z,102066.50
2022-08-26T15:04:49.472Z,102033.19
2022-08-26T15:07:56.932Z,102067.13
2022-08-26T15:11:03.853Z,102056.13
2022-08-26T15:14:19.037Z,102054.50
2022-08-26T15:17:27.195Z,102061.06
2022-08-26T15:20:33.983Z,102062.88
2022-08-26T15:23:41.020Z,102050.22
2022-08-26T15:26:54.920Z,102048.25
2022-08-26T15:30:01.701Z,102039.63
2022-08-26T15:33:15.117Z,102030.25
2022-08-26T15:36:20.274Z,102031.84
2022-08-26T15:38:47.215Z,102031.22
2022-08-26T15:41:14.408Z,102032.44
2022-08-26T15:44:01.387Z,102021.38
2022-08-26T15:47:10.245Z,102023.97
2022-08-26T15:50:17.013Z,102030.22
2022-08-26T15:53:25.181Z,101976.16
2022-08-26T15:56:32.300Z,102019.63
2022-08-26T15:59:42.012Z,102003.13
2022-08-26T16:02:48.749Z,102008.66
2022-08-26T16:06:01.230Z,101997.94
2022-08-26T16:09:08.449Z,102005.94
2022-08-26T16:15:29.161Z,101996.22
2022-08-26T16:18:36.633Z,101957.19
2022-08-26T16:21:46.015Z,101989.44
2022-08-26T16:24:52.875Z,101970.13
2022-08-26T16:28:01.773Z,101990.06
2022-08-26T16:31:13.048Z,101982.06
2022-08-26T16:34:19.976Z,101991.78
2022-08-26T16:37:26.857Z,101979.22
2022-08-26T16:40:33.686Z,101970.84
2022-08-26T16:43:40.573Z,101974.53
2022-08-26T16:46:48.106Z,101974.44
2022-08-26T16:49:54.862Z,101975.41
2022-08-26T16:53:02.064Z,101975.41
2022-08-26T16:56:10.513Z,101968.13
2022-08-26T16:59:17.317Z,101959.75
2022-08-26T17:02:24.704Z,101959.63
2022-08-26T17:05:33.051Z,101955.94
2022-08-26T17:08:39.877Z,101955.94
2022-08-26T17:11:47.007Z,101948.78
2022-08-26T17:14:53.837Z,101944.84
2022-08-26T17:17:41.597Z,101927.13
2022-08-26T17:20:31.699Z,101949.06
2022-08-26T17:23:18.777Z,101951.28
2022-08-26T17:26:05.890Z,101944.38
2022-08-26T17:28:53.829Z,101943.00
2022-08-26T17:31:43.498Z,101946.34
2022-08-26T17:34:30.642Z,101936.00
2022-08-26T17:37:17.617Z,101938.44
2022-08-26T17:40:04.766Z,101928.47
2022-08-26T17:42:52.037Z,101929.22
2022-08-26T17:45:39.391Z,101944.72
2022-08-26T17:48:26.489Z,101933.25
2022-08-26T17:51:14.009Z,101929.03
2022-08-26T17:54:02.337Z,101908.69
2022-08-26T17:56:50.222Z,101920.03
2022-08-26T17:59:37.512Z,101928.66
2022-08-26T18:05:18.609Z,101930.63
2022-08-26T18:08:05.599Z,101928.28
2022-08-26T18:10:52.916Z,101936.88
2022-08-26T18:13:45.779Z,101929.31
2022-08-26T18:16:35.464Z,101921.69
2022-08-26T18:19:22.600Z,101925.63
2022-08-26T18:22:09.623Z,101921.56
2022-08-26T18:25:02.773Z,101920.16
2022-08-26T18:27:49.756Z,101931.34
2022-08-26T18:30:39.971Z,101920.25
2022-08-26T18:33:26.994Z,101922.47
2022-08-26T18:36:14.108Z,101910.50
2022-08-26T18:39:01.132Z,101935.91
2022-08-26T18:41:50.384Z,101927.28
2022-08-26T18:44:40.344Z,101929.34
2022-08-26T18:47:27.275Z,101932.25
2022-08-26T18:50:14.452Z,101923.53
2022-08-26T18:53:01.569Z,101934.56
2022-08-26T18:55:48.493Z,101934.81
2022-08-26T18:58:35.510Z,101929.09
2022-08-26T19:01:26.728Z,101923.94
2022-08-26T19:04:16.099Z,101931.28
2022-08-26T19:07:05.983Z,101936.31
2022-08-26T19:09:54.060Z,101921.84
2022-08-26T19:12:42.868Z,101932.66
2022-08-26T19:15:31.353Z,101940.03
2022-08-26T19:18:18.677Z,101933.97
2022-08-26T19:21:07.021Z,101918.31
2022-08-26T19:23:54.229Z,101925.53
2022-08-26T19:26:41.210Z,101934.41
2022-08-26T19:29:28.528Z,101924.66
2022-08-26T19:32:16.029Z,101926.75
2022-08-26T19:35:03.315Z,101929.69
2022-08-26T19:37:50.378Z,101930.84
2022-08-26T19:40:37.802Z,101931.06
2022-08-26T19:43:25.471Z,101901.03
2022-08-26T19:46:12.564Z,101928.78
2022-08-26T19:49:00.736Z,101925.44
2022-08-26T19:51:50.286Z,101928.44
2022-08-26T19:54:37.490Z,101933.34
2022-08-26T19:57:25.221Z,101916.91
2022-08-26T20:00:12.192Z,101932.34
2022-08-26T20:02:59.432Z,101922.84
2022-08-26T20:05:47.341Z,101920.47
2022-08-26T20:08:34.384Z,101928.78
2022-08-26T20:11:23.945Z,101921.00
2022-08-26T20:14:10.929Z,101922.84
2022-08-26T20:16:57.968Z,101923.94
2022-08-26T20:19:43.445Z,101924.03
2022-08-26T20:22:30.935Z,101921.44
2022-08-26T20:25:18.017Z,101917.97
2022-08-26T20:28:04.949Z,101926.19
2022-08-26T20:30:51.917Z,101920.00
2022-08-26T20:33:39.887Z,101930.91
2022-08-26T20:36:35.022Z,101923.91
2022-08-26T20:39:22.144Z,101925.94
2022-08-26T20:42:20.019Z,101923.25
2022-08-26T20:45:07.748Z,101918.38
2022-08-26T20:47:54.624Z,101930.59
2022-08-26T20:50:41.608Z,101923.56
2022-08-26T20:53:28.581Z,101934.34
2022-08-26T20:56:20.940Z,101920.97
2022-08-26T20:59:07.913Z,101929.06
2022-08-26T21:01:56.919Z,101930.81
2022-08-26T21:04:46.186Z,101930.81
2022-08-26T21:07:33.094Z,101927.25
2022-08-26T21:10:20.079Z,101928.97
2022-08-26T21:13:07.261Z,101928.97
2022-08-26T21:15:55.569Z,101925.31
2022-08-26T21:18:42.629Z,101916.44
2022-08-26T21:21:29.679Z,101928.75
2022-08-26T21:24:17.170Z,101898.31
2022-08-26T21:27:04.577Z,101920.53
2022-08-26T21:29:52.005Z,101922.28
2022-08-26T21:32:38.965Z,101918.72
2022-08-26T21:35:26.925Z,101916.03
2022-08-26T21:38:13.828Z,101919.50
2022-08-26T21:41:00.857Z,101917.63
2022-08-26T21:43:48.901Z,101914.84
2022-08-26T21:46:39.512Z,101904.03
2022-08-26T21:49:30.400Z,101908.38
2022-08-26T21:51:57.525Z,101903.94
2022-08-26T21:54:24.497Z,101906.41
2022-08-26T21:56:51.613Z,101906.31
2022-08-26T21:59:19.160Z,101904.50
2022-08-26T22:01:46.574Z,101900.81
2022-08-26T22:04:36.475Z,101905.38
2022-08-26T22:07:23.369Z,101900.69
2022-08-26T22:10:10.308Z,101890.78
2022-08-26T22:12:57.286Z,101898.78
2022-08-26T22:15:44.376Z,101895.97
2022-08-26T22:18:31.309Z,101889.69
2022-08-26T22:21:21.304Z,101887.00
2022-08-26T22:24:08.257Z,101872.88
2022-08-26T22:26:55.682Z,101880.75
2022-08-26T22:29:44.403Z,101878.91
2022-08-26T22:32:31.513Z,101876.19
2022-08-26T22:35:29.312Z,101874.38
2022-08-26T22:38:17.628Z,101856.81
2022-08-26T22:41:11.368Z,101871.69
2022-08-26T22:43:58.589Z,101844.59
2022-08-26T22:46:46.836Z,101835.88
2022-08-26T22:49:38.030Z,101859.81
2022-08-26T22:52:24.916Z,101858.84
2022-08-26T22:55:11.954Z,101854.41
2022-08-26T22:57:59.129Z,101844.03
2022-08-26T23:00:47.037Z,101849.13
2022-08-26T23:03:35.856Z,101850.09
2022-08-26T23:06:26.041Z,101845.69
2022-08-26T23:09:12.881Z,101850.22
2022-08-26T23:12:02.910Z,101842.34
2022-08-26T23:14:51.744Z,101818.03
2022-08-26T23:17:38.830Z,101845.69
2022-08-26T23:20:29.330Z,101835.72
2022-08-26T23:23:16.547Z,101839.31
2022-08-26T23:26:06.176Z,101830.56
2022-08-26T23:28:54.426Z,101812.66
2022-08-26T23:31:41.900Z,101827.53
2022-08-26T23:34:27.394Z,101827.53
2022-08-26T23:37:17.089Z,101822.25
2022-08-26T23:40:04.266Z,101820.41
2022-08-26T23:42:51.421Z,101816.44
2022-08-26T23:45:39.055Z,101821.50
2022-08-26T23:48:26.457Z,101759.38
2022-08-26T23:51:11.991Z,101809.53
2022-08-26T23:53:39.068Z,101819.34
2022-08-26T23:56:14.880Z,101809.63
2022-08-26T23:58:42.425Z,101813.84
